Cincinnati, Ohio
Traffic Map
Current Weather Conditions
Cincinnati, Ohio
Scattered Clouds
Scattered Clouds
91°
Feels Like: 99°
Wind Chill: 91° Ceiling: Unl
Heat Index: 99° Visibility: 10mi
Dew Point: 73° Wind: 14mph
Humidity: 55% Direction: 350° (N)
Pressure: 29.95in Gusts: 0mph
Raw Report DataKLUK 251953Z 35012KT 10SM SCT049 33/23 A2995 RMK AO2 LTG DSNT SE-SW SLP135 T03280228
Traffic Incident Summary
Active as of:
Severity:
Category:
InformationThere was an issue retrieving the traffic information for this location. Please try a different location or try again shortly.
Advertisements
Track Severe Weather on mobile